Time;durP1;ratioP1;P1;durP2;ratioP2;P2;SDS_P1;SDS_P2;PMS_P1;PMS_P2;Temp;Humidity;BMP_temperature;BMP_pressure;BME280_temperature;BME280_humidity;BME280_pressure;Samples;Min_cycle;Max_cycle;Signal;HPM_P1;HPM_P2
2022/08/22 00:00:24;;;;;;;11.03;5.17;;;;;;;16.66;100.00;102521.53;7392588;19;20418;-59
2022/08/22 00:03:11;;;;;;;13.40;4.30;;;;;;;16.71;100.00;102514.78;7383424;19;20446;-58
2022/08/22 00:06:05;;;;;;;17.30;5.63;;;;;;;16.58;100.00;102506.47;7386559;19;21064;-57
2022/08/22 00:08:43;;;;;;;9.90;3.80;;;;;;;16.57;100.00;102509.88;7390596;19;20393;-58
2022/08/22 00:11:18;;;;;;;6.03;3.23;;;;;;;16.44;100.00;102500.63;7390038;19;20415;-57
2022/08/22 00:13:56;;;;;;;18.93;4.80;;;;;;;16.30;100.00;102509.50;7398434;19;20415;-57
2022/08/22 00:16:36;;;;;;;8.40;3.80;;;;;;;16.40;100.00;102523.88;7392863;19;20427;-59
2022/08/22 00:19:15;;;;;;;7.87;3.60;;;;;;;16.28;100.00;102517.28;7399754;19;20454;-56
2022/08/22 00:21:49;;;;;;;12.13;3.97;;;;;;;16.19;100.00;102525.53;7393349;19;20416;-60
2022/08/22 00:24:23;;;;;;;7.40;4.20;;;;;;;16.32;100.00;102531.31;7397390;19;20410;-55
2022/08/22 00:26:58;;;;;;;9.90;4.70;;;;;;;16.51;100.00;102534.78;7392965;19;20487;-57
2022/08/22 00:29:36;;;;;;;13.53;5.10;;;;;;;16.40;100.00;102529.06;7397618;19;20722;-59
2022/08/22 00:32:12;;;;;;;11.70;4.77;;;;;;;16.47;100.00;102526.78;7392827;19;20442;-59
2022/08/22 00:34:52;;;;;;;7.33;4.27;;;;;;;16.58;100.00;102524.69;7399334;19;20421;-56
2022/08/22 00:37:25;;;;;;;13.03;4.07;;;;;;;16.55;100.00;102523.63;7392870;19;20427;-56
2022/08/22 00:39:58;;;;;;;9.27;3.50;;;;;;;16.53;100.00;102521.00;7399311;19;20388;-58
2022/08/22 00:42:53;;;;;;;8.50;4.17;;;;;;;16.56;100.00;102515.91;7391304;19;20965;-55
2022/08/22 00:45:43;;;;;;;7.63;4.43;;;;;;;16.56;100.00;102512.44;7398891;19;20394;-57
2022/08/22 00:48:23;;;;;;;14.17;4.70;;;;;;;16.57;100.00;102515.06;7397562;19;20443;-57
2022/08/22 00:51:13;;;;;;;9.63;4.00;;;;;;;16.65;100.00;102519.72;7386935;19;20413;-58
2022/08/22 00:53:51;;;;;;;9.80;4.73;;;;;;;16.68;100.00;102518.19;7397339;19;20419;-56
2022/08/22 00:56:44;;;;;;;12.60;4.77;;;;;;;16.63;100.00;102510.97;7392091;19;20416;-53
2022/08/22 00:59:39;;;;;;;12.60;5.30;;;;;;;16.72;100.00;102514.88;7397307;19;20916;-54
2022/08/22 01:02:25;;;;;;;12.27;5.43;;;;;;;16.88;100.00;102507.75;7392367;19;20408;-57
2022/08/22 01:05:12;;;;;;;11.57;5.03;;;;;;;16.85;100.00;102508.50;7395114;19;20410;-54
2022/08/22 01:07:59;;;;;;;10.43;5.70;;;;;;;16.97;100.00;102496.81;7390662;19;20424;-57
2022/08/22 01:10:44;;;;;;;10.97;4.20;;;;;;;16.96;100.00;102490.72;7395837;19;20457;-59
2022/08/22 01:13:26;;;;;;;8.70;4.73;;;;;;;17.00;100.00;102477.00;7396685;19;20463;-53
2022/08/22 01:16:06;;;;;;;6.57;3.57;;;;;;;17.01;100.00;102477.84;7388275;19;20415;-58
2022/08/22 01:18:59;;;;;;;10.83;3.57;;;;;;;16.72;100.00;102467.97;7397857;19;20388;-57
2022/08/22 01:21:52;;;;;;;8.70;4.00;;;;;;;16.62;100.00;102477.94;7391258;19;20496;-58
2022/08/22 01:25:20;;;;;;;11.47;5.50;;;;;;;16.63;100.00;102490.13;7395442;19;20417;-56
2022/08/22 01:28:14;;;;;;;11.40;5.00;;;;;;;16.94;100.00;102491.47;7390418;19;20413;-54
2022/08/22 01:30:54;;;;;;;8.00;4.50;;;;;;;17.00;100.00;102486.50;7390161;19;21023;-56
2022/08/22 01:34:06;;;;;;;5.30;3.10;;;;;;;16.88;100.00;102482.56;7396248;19;20406;-53
2022/08/22 01:37:18;;;;;;;11.00;4.40;;;;;;;16.78;100.00;102483.00;7388299;19;20942;-58
2022/08/22 01:40:17;;;;;;;13.77;5.83;;;;;;;16.83;100.00;102493.63;7384633;19;20762;-54
2022/08/22 01:43:03;;;;;;;8.50;3.40;;;;;;;16.67;100.00;102498.13;7389631;19;20441;-59
2022/08/22 01:46:00;;;;;;;11.63;5.77;;;;;;;16.76;100.00;102495.03;7397021;19;20460;-56
2022/08/22 01:48:36;;;;;;;10.00;4.07;;;;;;;16.56;100.00;102499.41;7397211;19;20997;-59
2022/08/22 01:51:15;;;;;;;13.83;5.87;;;;;;;16.48;100.00;102512.06;7388190;19;20393;-57
2022/08/22 01:53:57;;;;;;;11.17;3.67;;;;;;;16.41;100.00;102520.44;7395233;19;20409;-58
2022/08/22 01:56:28;;;;;;;11.00;4.40;;;;;;;16.36;100.00;102519.31;7391137;19;20419;-58
2022/08/22 01:59:00;;;;;;;15.20;5.40;;;;;;;16.40;100.00;102524.75;7394707;19;20915;-54
2022/08/22 02:01:42;;;;;;;14.07;4.23;;;;;;;16.60;100.00;102510.03;7389132;19;20486;-56
2022/08/22 02:04:17;;;;;;;12.33;4.60;;;;;;;16.55;100.00;102521.94;7394246;19;20427;-52
2022/08/22 02:06:53;;;;;;;11.67;4.23;;;;;;;16.63;100.00;102522.28;7389992;19;20423;-56
2022/08/22 02:09:33;;;;;;;6.30;3.93;;;;;;;16.43;100.00;102514.47;7394738;19;20395;-56
2022/08/22 02:12:18;;;;;;;10.70;4.70;;;;;;;16.47;100.00;102510.28;7389645;19;20818;-56
2022/08/22 02:14:54;;;;;;;10.40;4.00;;;;;;;16.51;100.00;102506.97;7393800;19;20929;-54
2022/08/22 02:17:28;;;;;;;9.90;4.23;;;;;;;16.43;100.00;102506.66;7388878;19;20749;-58
2022/08/22 02:20:01;;;;;;;13.60;5.10;;;;;;;16.37;100.00;102497.66;7395169;19;20731;-58
2022/08/22 02:22:39;;;;;;;11.17;4.70;;;;;;;16.35;100.00;102457.66;7387630;19;20428;-56
2022/08/22 02:25:19;;;;;;;7.67;3.37;;;;;;;16.28;100.00;102431.31;7394777;19;20417;-59
2022/08/22 02:27:56;;;;;;;9.43;4.80;;;;;;;16.53;100.00;102366.38;7389643;19;20773;-56
2022/08/22 02:30:29;;;;;;;11.37;5.00;;;;;;;16.47;100.00;102390.47;7396039;19;20434;-60
2022/08/22 02:33:05;;;;;;;25.27;5.03;;;;;;;16.47;100.00;102391.34;7394139;19;20434;-53
2022/08/22 02:35:38;;;;;;;8.93;4.10;;;;;;;16.52;100.00;102391.56;7387227;19;20387;-58
2022/08/22 02:38:16;;;;;;;12.90;4.17;;;;;;;16.37;100.00;102411.72;7394943;19;20385;-53
2022/08/22 02:40:55;;;;;;;8.80;4.00;;;;;;;16.46;100.00;102397.38;7389915;19;20396;-54
2022/08/22 02:43:26;;;;;;;16.30;4.47;;;;;;;16.56;100.00;102406.47;7393650;19;20422;-55
2022/08/22 02:46:07;;;;;;;8.17;3.60;;;;;;;16.69;100.00;102422.63;7388024;19;20414;-60
2022/08/22 02:48:40;;;;;;;8.47;4.83;;;;;;;16.74;100.00;102436.75;7395041;19;20915;-53
2022/08/22 02:51:17;;;;;;;12.00;6.37;;;;;;;16.82;100.00;102451.00;7386379;19;20426;-54
2022/08/22 02:53:52;;;;;;;12.37;5.57;;;;;;;16.74;100.00;102468.94;7393450;19;20427;-58
2022/08/22 02:56:30;;;;;;;21.40;9.53;;;;;;;16.74;100.00;102461.13;7387578;19;20420;-60
2022/08/22 02:59:15;;;;;;;21.73;12.43;;;;;;;17.12;100.00;102445.34;7394667;19;20377;-56
2022/08/22 03:01:47;;;;;;;39.37;23.30;;;;;;;17.36;100.00;102481.09;7387992;19;20430;-60
2022/08/22 03:04:22;;;;;;;46.27;28.87;;;;;;;17.32;100.00;102497.44;7392674;19;20412;-55
2022/08/22 03:07:10;;;;;;;17.50;6.30;;;;;;;17.30;100.00;102500.81;7388850;19;20437;-55
2022/08/22 03:09:43;;;;;;;14.63;6.60;;;;;;;17.08;100.00;102494.69;7393860;19;20382;-56
2022/08/22 03:12:21;;;;;;;21.77;11.90;;;;;;;16.98;100.00;102496.00;7388273;19;20429;-57
2022/08/22 03:15:01;;;;;;;12.93;8.27;;;;;;;17.03;100.00;102496.22;7392235;19;20416;-52
2022/08/22 03:17:35;;;;;;;15.13;4.43;;;;;;;16.90;100.00;102492.16;7386715;19;20439;-60
2022/08/22 03:20:12;;;;;;;15.53;4.80;;;;;;;16.64;100.00;102500.63;7394046;19;20749;-56
2022/08/22 03:22:46;;;;;;;14.17;3.90;;;;;;;16.43;100.00;102503.16;7386998;19;20441;-55
2022/08/22 03:25:23;;;;;;;12.40;4.40;;;;;;;16.41;100.00;102499.59;7393425;19;20389;-55
2022/08/22 03:27:59;;;;;;;9.83;4.63;;;;;;;16.41;100.00;102492.66;7389966;19;20446;-53
2022/08/22 03:30:34;;;;;;;12.03;3.80;;;;;;;16.44;100.00;102498.03;7395581;19;20445;-60
2022/08/22 03:33:17;;;;;;;10.73;4.90;;;;;;;16.46;100.00;102477.25;7392276;19;20410;-56
2022/08/22 03:35:59;;;;;;;13.67;5.40;;;;;;;16.43;100.00;102482.31;7390450;19;20393;-57
2022/08/22 03:38:32;;;;;;;17.13;5.40;;;;;;;16.64;100.00;102460.63;7393261;19;20400;-60
2022/08/22 03:41:17;;;;;;;13.17;4.07;;;;;;;16.57;100.00;102480.34;7388139;19;20406;-60
2022/08/22 03:44:17;;;;;;;14.47;5.60;;;;;;;16.49;100.00;102466.06;7391389;19;20433;-55
2022/08/22 03:46:58;;;;;;;10.17;4.20;;;;;;;16.42;100.00;102484.00;7383050;19;20425;-55
2022/08/22 03:49:55;;;;;;;9.07;3.53;;;;;;;16.31;100.00;102483.53;7392172;19;20924;-57
2022/08/22 03:55:32;;;;;;;11.20;4.23;;;;;;;16.51;100.00;102465.31;7391199;19;20429;-56
2022/08/22 03:58:35;;;;;;;11.43;4.57;;;;;;;16.64;100.00;102481.47;7391170;19;20421;-56
2022/08/22 04:01:30;;;;;;;15.50;4.93;;;;;;;16.50;100.00;102500.00;7382640;19;20418;-55
2022/08/22 04:04:30;;;;;;;13.03;4.70;;;;;;;16.74;100.00;102494.09;7390406;19;20434;-54
2022/08/22 04:07:09;;;;;;;10.50;4.40;;;;;;;16.70;100.00;102523.44;7384847;19;20452;-57
2022/08/22 04:10:31;;;;;;;16.23;4.40;;;;;;;16.64;100.00;102517.97;7391590;19;20419;-57
2022/08/22 04:13:22;;;;;;;16.00;5.90;;;;;;;16.70;100.00;102516.53;7390185;19;20977;-59
2022/08/22 04:16:32;;;;;;;109.53;54.67;;;;;;;16.78;100.00;102519.47;7385897;19;20416;-56
2022/08/22 04:19:26;;;;;;;18.33;6.30;;;;;;;16.62;100.00;102522.22;7388657;19;20383;-58
2022/08/22 04:22:22;;;;;;;27.83;14.70;;;;;;;16.50;100.00;102519.97;7384456;19;20430;-54
2022/08/22 04:24:58;;;;;;;19.63;9.33;;;;;;;16.47;100.00;102499.88;7388964;19;20417;-51
2022/08/22 04:27:31;;;;;;;13.03;5.40;;;;;;;16.40;100.00;102450.94;7384831;19;20491;-59
2022/08/22 04:30:05;;;;;;;20.33;10.10;;;;;;;16.33;100.00;102382.03;7390790;19;20925;-55
2022/08/22 04:32:40;;;;;;;13.43;4.93;;;;;;;16.31;100.00;102254.34;7385157;19;20734;-57
2022/08/22 04:35:19;;;;;;;11.93;4.77;;;;;;;16.25;100.00;102212.44;7392641;19;20417;-58
2022/08/22 04:37:58;;;;;;;25.13;6.20;;;;;;;16.30;100.00;102166.66;7385098;19;20421;-53
2022/08/22 04:40:32;;;;;;;15.07;4.13;;;;;;;16.34;100.00;102128.59;7391084;19;20409;-55
2022/08/22 04:43:05;;;;;;;13.70;5.40;;;;;;;16.31;100.00;102124.16;7389014;19;20419;-56
2022/08/22 04:45:37;;;;;;;12.33;5.23;;;;;;;16.25;100.00;102076.16;7384624;19;20386;-57
2022/08/22 04:48:09;;;;;;;15.60;4.17;;;;;;;16.26;100.00;102057.97;7390102;19;20395;-59
2022/08/22 04:50:45;;;;;;;17.53;4.40;;;;;;;16.35;100.00;102038.34;7383277;19;20385;-55
2022/08/22 04:53:39;;;;;;;10.70;4.30;;;;;;;16.37;100.00;102042.78;7388864;19;20417;-58
2022/08/22 04:56:15;;;;;;;13.03;6.33;;;;;;;16.52;100.00;102052.00;7384123;19;20431;-53
2022/08/22 04:58:48;;;;;;;14.70;7.70;;;;;;;16.55;100.00;102070.34;7396963;19;20735;-53
2022/08/22 05:01:20;;;;;;;23.90;7.53;;;;;;;16.51;100.00;102090.19;7390123;19;20409;-53
2022/08/22 05:03:57;;;;;;;19.70;6.70;;;;;;;16.53;100.00;102085.94;7396131;19;20796;-56
2022/08/22 05:06:31;;;;;;;15.80;5.47;;;;;;;16.57;100.00;102093.03;7390884;19;20416;-54
2022/08/22 05:09:05;;;;;;;12.70;5.00;;;;;;;16.52;100.00;102097.19;7397702;19;20906;-53
2022/08/22 05:11:36;;;;;;;20.37;5.37;;;;;;;16.67;100.00;102089.03;7389803;19;20420;-56
2022/08/22 05:14:11;;;;;;;10.07;4.70;;;;;;;16.76;100.00;102117.16;7397899;19;20430;-59
2022/08/22 05:16:42;;;;;;;18.87;8.60;;;;;;;16.63;100.00;102140.97;7390934;19;20401;-60
2022/08/22 05:19:15;;;;;;;17.50;5.20;;;;;;;16.56;100.00;102145.97;7398696;19;20411;-60
2022/08/22 05:21:53;;;;;;;16.93;4.73;;;;;;;16.65;100.00;102154.94;7388341;19;20421;-58
2022/08/22 05:24:25;;;;;;;9.37;4.10;;;;;;;16.58;100.00;102156.44;7394667;19;20422;-54
2022/08/22 05:26:58;;;;;;;9.70;3.67;;;;;;;16.50;100.00;102143.09;7389472;19;20448;-58
2022/08/22 05:29:30;;;;;;;11.23;3.70;;;;;;;16.47;100.00;102117.81;7396561;19;20400;-59
2022/08/22 05:32:02;;;;;;;13.00;4.37;;;;;;;16.53;100.00;102100.66;7389672;19;20417;-56
2022/08/22 05:34:35;;;;;;;16.43;4.50;;;;;;;16.50;100.00;102097.97;7397199;19;20956;-56
2022/08/22 05:37:19;;;;;;;7.27;4.03;;;;;;;16.64;100.00;102082.84;7389805;19;20412;-53
2022/08/22 05:39:52;;;;;;;11.77;4.00;;;;;;;16.67;100.00;102090.78;7396233;19;20390;-57
2022/08/22 05:42:26;;;;;;;16.37;4.50;;;;;;;16.61;100.00;102107.03;7389524;19;20424;-58
2022/08/22 05:44:56;;;;;;;12.63;4.87;;;;;;;16.57;100.00;102116.47;7393473;19;20410;-57
2022/08/22 05:47:30;;;;;;;15.50;4.73;;;;;;;16.68;100.00;102123.81;7388598;19;20414;-53
2022/08/22 05:50:04;;;;;;;9.03;4.27;;;;;;;16.57;100.00;102152.94;7395827;19;20403;-54
2022/08/22 05:52:44;;;;;;;8.03;3.97;;;;;;;16.54;100.00;102152.84;7389287;19;20414;-54
2022/08/22 05:55:23;;;;;;;9.93;4.43;;;;;;;16.70;100.00;102156.03;7395500;19;20449;-56
2022/08/22 05:58:03;;;;;;;14.07;4.10;;;;;;;16.73;100.00;102180.47;7389559;19;20757;-60
2022/08/22 06:00:38;;;;;;;9.30;3.60;;;;;;;16.51;100.00;102202.19;7395850;19;20397;-54
2022/08/22 06:03:16;;;;;;;14.67;4.17;;;;;;;16.58;100.00;102196.44;7393671;19;20433;-56
2022/08/22 06:05:49;;;;;;;18.43;4.70;;;;;;;16.59;100.00;102203.41;7385096;19;20394;-57
2022/08/22 06:08:24;;;;;;;10.63;4.57;;;;;;;16.78;100.00;102201.53;7395157;19;20386;-55
2022/08/22 06:10:55;;;;;;;10.03;4.40;;;;;;;16.70;100.00;102237.69;7386685;19;20439;-52
2022/08/22 06:13:33;;;;;;;11.13;3.70;;;;;;;16.63;100.00;102240.00;7393694;19;20837;-52
2022/08/22 06:16:10;;;;;;;9.70;4.10;;;;;;;16.57;100.00;102230.22;7379214;19;20445;-56
2022/08/22 06:18:42;;;;;;;10.77;4.50;;;;;;;16.72;100.00;102216.91;7395290;19;20466;-55
2022/08/22 06:21:14;;;;;;;11.27;4.77;;;;;;;16.69;100.00;102230.72;7380587;19;20425;-55
2022/08/22 06:23:50;;;;;;;11.13;4.83;;;;;;;16.60;100.00;102236.44;7393568;19;20935;-55
2022/08/22 06:26:21;;;;;;;11.20;4.17;;;;;;;16.64;100.00;102227.03;7380816;19;20436;-55
2022/08/22 06:28:54;;;;;;;14.57;4.13;;;;;;;16.59;100.00;102265.94;7394997;19;20391;-57
2022/08/22 06:31:28;;;;;;;11.10;3.87;;;;;;;16.63;100.00;102306.03;7387194;19;20433;-58
2022/08/22 06:34:00;;;;;;;16.03;4.57;;;;;;;16.80;100.00;102338.00;7394595;19;20970;-58
2022/08/22 06:36:33;;;;;;;7.87;4.30;;;;;;;16.73;100.00;102375.06;7387367;19;20982;-57
2022/08/22 06:39:13;;;;;;;10.83;4.03;;;;;;;16.93;100.00;102424.50;7394884;19;20394;-53
2022/08/22 06:41:47;;;;;;;8.33;3.50;;;;;;;16.88;100.00;102497.31;7387238;19;20760;-60
2022/08/22 06:44:18;;;;;;;11.37;4.50;;;;;;;17.01;100.00;102550.88;7392489;19;20802;-57
2022/08/22 06:46:50;;;;;;;10.70;3.60;;;;;;;17.04;100.00;102582.34;7388015;19;20415;-54
2022/08/22 06:49:20;;;;;;;13.53;4.13;;;;;;;17.16;100.00;102591.53;7393837;19;20391;-57
2022/08/22 06:51:50;;;;;;;10.90;3.97;;;;;;;17.22;100.00;102592.66;7386307;19;20442;-55
2022/08/22 06:54:25;;;;;;;10.33;3.40;;;;;;;17.19;100.00;102574.28;7392187;19;20910;-57
2022/08/22 06:56:59;;;;;;;9.00;3.93;;;;;;;17.24;100.00;102572.75;7387815;19;20423;-58
2022/08/22 06:59:31;;;;;;;7.30;3.73;;;;;;;17.33;100.00;102551.38;7393581;19;20431;-54
2022/08/22 07:02:05;;;;;;;8.47;2.90;;;;;;;17.49;100.00;102523.34;7386870;19;20419;-57
2022/08/22 07:04:35;;;;;;;13.03;2.70;;;;;;;17.57;100.00;102458.44;7391802;19;20423;-53
2022/08/22 07:07:04;;;;;;;6.20;2.93;;;;;;;17.59;100.00;102357.59;7386789;19;20415;-52
2022/08/22 07:09:38;;;;;;;10.33;3.60;;;;;;;17.76;100.00;102231.25;7393256;19;20394;-57
2022/08/22 07:12:13;;;;;;;68.03;34.00;;;;;;;17.81;100.00;102082.59;7387423;19;20985;-55
2022/08/22 07:14:44;;;;;;;68.73;39.13;;;;;;;17.87;100.00;101925.28;7392082;19;20425;-56
2022/08/22 07:17:20;;;;;;;42.27;19.87;;;;;;;17.78;100.00;101740.59;7386480;19;20418;-55
2022/08/22 07:19:56;;;;;;;153.33;96.27;;;;;;;17.90;100.00;101672.19;7391966;19;20387;-57
2022/08/22 07:22:28;;;;;;;34.90;19.17;;;;;;;18.03;100.00;101580.28;7385886;19;20502;-52
2022/08/22 07:25:03;;;;;;;48.30;26.10;;;;;;;18.10;100.00;101478.63;7391253;19;20407;-55
2022/08/22 07:27:45;;;;;;;9.73;4.87;;;;;;;17.97;100.00;101354.75;7386018;19;20453;-52
2022/08/22 07:30:19;;;;;;;10.73;5.30;;;;;;;17.87;100.00;101419.81;7393094;19;20384;-54
2022/08/22 07:32:59;;;;;;;16.93;7.43;;;;;;;18.01;100.00;101437.50;7382249;19;20463;-60
2022/08/22 07:35:52;;;;;;;17.87;7.30;;;;;;;18.12;100.00;101312.44;7386591;19;20928;-58
2022/08/22 07:38:32;;;;;;;9.30;3.63;;;;;;;18.14;100.00;101262.00;7392099;19;20386;-53
2022/08/22 07:41:10;;;;;;;8.30;4.17;;;;;;;18.14;100.00;101203.69;7386906;19;20442;-56
2022/08/22 07:43:44;;;;;;;10.43;2.87;;;;;;;18.13;100.00;101184.53;7390829;19;20426;-56
2022/08/22 07:46:22;;;;;;;7.60;3.30;;;;;;;18.23;100.00;101164.66;7385188;19;20422;-53
2022/08/22 07:48:55;;;;;;;7.73;3.10;;;;;;;18.46;100.00;101123.25;7390255;19;20379;-51
2022/08/22 07:51:43;;;;;;;7.90;2.70;;;;;;;18.63;100.00;101099.97;7384324;19;20785;-60
2022/08/22 07:54:15;;;;;;;6.67;2.93;;;;;;;18.78;100.00;101084.47;7390323;19;20427;-56
2022/08/22 07:56:55;;;;;;;9.77;3.70;;;;;;;18.90;100.00;101029.75;7385241;19;20426;-55
2022/08/22 07:59:26;;;;;;;7.10;2.80;;;;;;;18.88;100.00;101002.72;7392165;19;20383;-57
2022/08/22 08:01:59;;;;;;;11.40;3.20;;;;;;;18.83;100.00;100963.47;7382565;19;20411;-51
2022/08/22 08:04:32;;;;;;;11.80;3.70;;;;;;;18.85;100.00;101021.84;7390053;19;20427;-55
2022/08/22 08:07:10;;;;;;;7.70;3.07;;;;;;;18.84;100.00;101008.75;7385711;19;20410;-58
2022/08/22 08:09:43;;;;;;;10.57;3.77;;;;;;;18.92;100.00;101021.94;7391670;19;20394;-57
2022/08/22 08:12:15;;;;;;;8.43;2.60;;;;;;;18.89;100.00;100986.16;7385329;19;20433;-53
2022/08/22 08:14:47;;;;;;;8.73;3.03;;;;;;;19.09;100.00;101075.31;7389399;19;20411;-56
2022/08/22 08:17:20;;;;;;;41.47;24.77;;;;;;;19.11;100.00;100945.47;7384767;19;20430;-59
2022/08/22 08:19:51;;;;;;;26.13;14.83;;;;;;;19.13;100.00;100948.97;7391460;19;20391;-56
2022/08/22 08:22:26;;;;;;;99.07;52.23;;;;;;;19.35;100.00;100901.19;7384596;19;20420;-55
2022/08/22 08:24:57;;;;;;;24.50;9.07;;;;;;;19.43;100.00;100811.44;7388951;19;20411;-53
2022/08/22 08:30:26;;;;;;;14.30;7.90;;;;;;;19.74;100.00;100802.88;7391177;19;20395;-56
2022/08/22 08:32:58;;;;;;;6.83;3.17;;;;;;;19.78;100.00;100754.03;7385684;19;20435;-58
2022/08/22 08:35:52;;;;;;;6.27;2.30;;;;;;;19.83;100.00;100812.50;7390979;19;20423;-57
2022/08/22 08:38:34;;;;;;;8.60;3.07;;;;;;;19.84;100.00;100730.50;7398745;19;20401;-58
2022/08/22 08:41:31;;;;;;;12.33;3.23;;;;;;;19.90;100.00;100691.25;7392520;19;20402;-59
2022/08/22 08:44:10;;;;;;;12.33;3.00;;;;;;;20.00;100.00;100692.16;7395039;19;20758;-57
2022/08/22 08:46:58;;;;;;;9.33;3.37;;;;;;;20.10;100.00;100614.53;7389106;19;20417;-54
2022/08/22 08:49:39;;;;;;;6.07;2.53;;;;;;;20.16;100.00;100541.19;7398157;19;20396;-58
2022/08/22 08:52:42;;;;;;;8.10;3.00;;;;;;;20.24;100.00;100471.31;7391077;19;20979;-55
2022/08/22 08:55:21;;;;;;;10.97;2.83;;;;;;;20.34;100.00;100416.28;7398190;19;20431;-56
2022/08/22 08:58:09;;;;;;;9.77;2.83;;;;;;;20.37;100.00;100383.06;7387872;19;20427;-59
2022/08/22 09:00:52;;;;;;;8.00;2.37;;;;;;;20.50;100.00;100318.41;7391988;19;20396;-57
2022/08/22 09:03:36;;;;;;;9.20;2.80;;;;;;;20.50;100.00;100263.38;7397244;19;20422;-56
2022/08/22 09:06:28;;;;;;;7.20;2.37;;;;;;;20.66;100.00;100230.94;7390037;19;20419;-58
2022/08/22 09:09:04;;;;;;;13.67;4.80;;;;;;;20.72;100.00;100168.00;7397847;19;20388;-56
2022/08/22 09:12:00;;;;;;;12.73;5.47;;;;;;;20.88;100.00;100117.16;7390409;19;20415;-57
2022/08/22 09:14:50;;;;;;;6.13;3.07;;;;;;;20.84;100.00;100062.13;7394742;19;20431;-52
2022/08/22 09:17:35;;;;;;;9.63;2.83;;;;;;;20.75;100.00;100058.75;7391948;19;20447;-59
2022/08/22 09:20:37;;;;;;;9.20;3.43;;;;;;;20.95;100.00;100020.97;7398579;19;20402;-59
2022/08/22 09:23:48;;;;;;;13.87;3.23;;;;;;;21.09;100.00;99984.09;7395202;19;20458;-57
2022/08/22 09:26:28;;;;;;;6.43;2.60;;;;;;;21.23;100.00;99975.16;7387339;19;20411;-55
2022/08/22 09:29:00;;;;;;;10.03;3.47;;;;;;;21.25;100.00;99968.13;7396955;19;20387;-54
2022/08/22 09:31:38;;;;;;;8.13;2.80;;;;;;;21.32;100.00;99969.75;7389205;19;20491;-54
2022/08/22 09:34:26;;;;;;;17.77;10.93;;;;;;;21.48;100.00;99951.16;7396247;19;20787;-59
2022/08/22 09:37:10;;;;;;;7.10;2.50;;;;;;;21.49;100.00;99947.63;7389510;19;20417;-58
2022/08/22 09:39:52;;;;;;;16.93;6.77;;;;;;;21.69;100.00;99963.06;7396401;19;20388;-54
2022/08/22 09:42:31;;;;;;;9.60;2.80;;;;;;;21.82;100.00;99984.72;7387304;19;20407;-53
2022/08/22 09:45:29;;;;;;;11.40;3.10;;;;;;;21.88;100.00;100046.78;7393001;19;20450;-59
2022/08/22 09:48:02;;;;;;;8.07;2.57;;;;;;;21.95;100.00;100033.50;7393660;19;20419;-56
2022/08/22 09:50:48;;;;;;;10.00;3.27;;;;;;;22.10;100.00;100008.75;7390744;19;20419;-56
2022/08/22 09:53:41;;;;;;;10.83;3.80;;;;;;;22.14;100.00;100022.69;7394847;19;20498;-56
2022/08/22 09:56:17;;;;;;;7.97;2.50;;;;;;;22.03;100.00;100048.25;7388638;19;20494;-59
2022/08/22 09:58:54;;;;;;;9.70;3.53;;;;;;;22.19;100.00;100083.88;7396463;19;20375;-55
2022/08/22 10:01:27;;;;;;;5.83;2.60;;;;;;;22.03;100.00;100124.41;7389627;19;20454;-54
2022/08/22 10:04:32;;;;;;;24.80;13.43;;;;;;;22.11;100.00;100133.91;7393819;19;20760;-56
2022/08/22 10:07:10;;;;;;;26.97;12.90;;;;;;;22.36;100.00;100145.78;7387945;19;20418;-56
2022/08/22 10:09:49;;;;;;;34.83;20.63;;;;;;;22.60;100.00;100183.09;7395301;19;20403;-58
2022/08/22 10:12:29;;;;;;;8.03;3.00;;;;;;;22.73;100.00;100242.44;7388660;19;20960;-52
2022/08/22 10:15:15;;;;;;;8.70;2.20;;;;;;;23.02;100.00;100284.91;7393120;19;20427;-59
2022/08/22 10:17:54;;;;;;;7.50;3.30;;;;;;;23.27;100.00;100411.63;7388884;19;20410;-54
2022/08/22 10:20:30;;;;;;;16.00;4.03;;;;;;;23.00;100.00;100565.50;7394966;19;20387;-58
2022/08/22 10:23:16;;;;;;;10.93;5.10;;;;;;;22.85;100.00;100558.66;7393678;19;20426;-53
2022/08/22 10:25:51;;;;;;;8.80;2.13;;;;;;;22.78;100.00;100528.97;7388717;19;20465;-57
2022/08/22 10:28:30;;;;;;;5.10;2.33;;;;;;;23.16;100.00;100576.69;7395166;19;20386;-58
2022/08/22 10:31:14;;;;;;;8.70;2.97;;;;;;;23.56;100.00;100648.97;7388570;19;20470;-53
2022/08/22 10:33:56;;;;;;;7.50;2.10;;;;;;;23.51;100.00;100853.50;7394028;19;20419;-55
2022/08/22 10:36:40;;;;;;;9.63;3.17;;;;;;;23.47;100.00;100865.84;7388013;19;20411;-57
2022/08/22 10:39:18;;;;;;;8.07;2.23;;;;;;;23.46;100.00;100898.31;7394312;19;20404;-58
2022/08/22 10:42:08;;;;;;;9.57;2.40;;;;;;;23.55;100.00;100921.94;7388254;19;20410;-54
2022/08/22 10:44:46;;;;;;;9.20;3.50;;;;;;;23.76;100.00;100904.16;7392583;19;20400;-55
2022/08/22 10:47:19;;;;;;;12.00;2.53;;;;;;;24.00;100.00;100907.41;7386971;19;20474;-58
2022/08/22 10:49:52;;;;;;;10.67;4.50;;;;;;;24.30;100.00;100943.97;7394489;19;20387;-59
2022/08/22 10:52:25;;;;;;;9.50;3.30;;;;;;;24.06;100.00;100960.03;7386210;19;20955;-56
2022/08/22 10:55:02;;;;;;;6.57;2.20;;;;;;;23.51;100.00;100936.00;7389284;19;20446;-57
2022/08/22 10:57:50;;;;;;;9.67;3.07;;;;;;;23.33;100.00;100864.22;7388203;19;20447;-57
2022/08/22 11:00:35;;;;;;;7.03;2.23;;;;;;;23.37;100.00;100838.75;7393836;19;20406;-58
2022/08/22 11:03:17;;;;;;;8.63;2.70;;;;;;;23.52;100.00;100814.00;7391554;19;20421;-57
2022/08/22 11:05:54;;;;;;;5.80;2.00;;;;;;;23.91;100.00;100855.69;7387035;19;20387;-56
2022/08/22 11:08:34;;;;;;;5.67;2.20;;;;;;;24.05;100.00;100868.69;7393720;19;20394;-60
2022/08/22 11:11:18;;;;;;;6.53;2.60;;;;;;;23.79;100.00;100861.13;7386271;19;20895;-57
2022/08/22 11:14:06;;;;;;;18.17;10.87;;;;;;;23.68;100.00;100824.38;7391910;19;20498;-56
2022/08/22 11:16:49;;;;;;;19.00;10.70;;;;;;;23.58;100.00;100816.56;7386502;19;20415;-58
2022/08/22 11:19:39;;;;;;;13.10;3.50;;;;;;;23.68;100.00;100817.34;7393274;19;20914;-56
2022/08/22 11:22:26;;;;;;;6.87;2.63;;;;;;;23.86;100.00;100829.44;7383260;19;20419;-59
2022/08/22 11:25:29;;;;;;;15.83;6.60;;;;;;;24.04;100.00;100829.19;7393690;19;20423;-58
2022/08/22 11:28:32;;;;;;;10.73;3.70;;;;;;;24.01;100.00;100816.94;7391856;19;20494;-57
2022/08/22 11:31:07;;;;;;;6.07;2.53;;;;;;;24.17;100.00;100830.81;7385947;19;20412;-60
2022/08/22 11:33:44;;;;;;;13.27;5.07;;;;;;;24.34;100.00;100833.19;7392132;19;20767;-53
2022/08/22 11:36:30;;;;;;;11.70;4.10;;;;;;;24.15;100.00;100851.06;7385599;19;20403;-58
2022/08/22 11:39:11;;;;;;;7.83;2.70;;;;;;;24.04;100.00;100835.31;7392880;19;20910;-59
2022/08/22 11:41:53;;;;;;;10.47;3.23;;;;;;;24.23;100.00;100824.56;7386692;19;20929;-57
2022/08/22 11:44:29;;;;;;;9.93;3.27;;;;;;;24.29;100.00;100823.63;7390909;19;20415;-56
2022/08/22 11:47:01;;;;;;;8.63;3.10;;;;;;;24.42;100.00;100841.00;7385277;19;20814;-57
2022/08/22 11:49:42;;;;;;;8.30;2.83;;;;;;;24.47;100.00;100854.09;7392522;19;21051;-57
2022/08/22 11:52:41;;;;;;;8.33;3.10;;;;;;;24.48;100.00;100863.75;7386487;19;20453;-61
2022/08/22 11:55:24;;;;;;;9.10;3.37;;;;;;;24.70;100.00;100868.72;7390153;19;20424;-57
2022/08/22 11:58:11;;;;;;;9.67;2.87;;;;;;;24.83;100.00;100867.66;7391358;19;20415;-59
2022/08/22 12:00:49;;;;;;;19.83;10.77;;;;;;;24.62;100.00;100869.69;7385314;19;20392;-57
2022/08/22 12:03:36;;;;;;;6.67;2.60;;;;;;;24.69;100.00;100870.47;7390896;19;20399;-54
2022/08/22 12:06:11;;;;;;;8.27;2.90;;;;;;;24.74;100.00;100865.13;7386191;19;20419;-57
2022/08/22 12:09:13;;;;;;;9.77;3.37;;;;;;;24.88;100.00;100854.38;7399952;19;20379;-57
2022/08/22 12:11:54;;;;;;;12.20;3.70;;;;;;;24.97;100.00;100832.25;7392496;19;20406;-56
2022/08/22 12:14:29;;;;;;;6.93;3.20;;;;;;;24.92;100.00;100838.47;7396677;19;20450;-55
2022/08/22 12:17:13;;;;;;;10.57;3.37;;;;;;;25.05;100.00;100864.66;7392513;19;20414;-57